Time;durP1;ratioP1;P1;durP2;ratioP2;P2;SDS_P1;SDS_P2;PMS_P1;PMS_P2;Temp;Humidity;BMP_temperature;BMP_pressure;BME280_temperature;BME280_humidity;BME280_pressure;Samples;Min_cycle;Max_cycle;Signal;HPM_P1;HPM_P2
2021/05/05 00:00:36;;;;;;;;;;;;;;;21.76;29.73;97800.53;4942758;29;624;-78
2021/05/05 00:03:01;;;;;;;;;;;;;;;21.82;29.71;97805.19;4926313;29;679;-78
2021/05/05 00:05:27;;;;;;;;;;;;;;;21.76;29.78;97795.69;4942139;29;1121;-78
2021/05/05 00:07:52;;;;;;;;;;;;;;;21.74;29.96;97803.81;4942491;29;797;-78
2021/05/05 00:10:18;;;;;;;;;;;;;;;21.76;29.73;97801.34;4942559;29;1043;-78
2021/05/05 00:12:43;;;;;;;;;;;;;;;21.80;29.60;97796.34;4942697;29;561;-78
2021/05/05 00:15:10;;;;;;;;;;;;;;;21.78;29.69;97787.53;4925839;29;1902;-77
2021/05/05 00:17:36;;;;;;;;;;;;;;;21.83;29.59;97794.66;4942136;29;839;-78
2021/05/05 00:20:03;;;;;;;;;;;;;;;21.77;29.74;97780.28;4924977;29;970;-78
2021/05/05 00:22:28;;;;;;;;;;;;;;;21.78;29.67;97787.53;4925982;29;895;-78
2021/05/05 00:24:54;;;;;;;;;;;;;;;21.88;29.50;97790.47;4942343;29;692;-78
2021/05/05 00:27:19;;;;;;;;;;;;;;;21.87;29.79;97786.06;4942282;29;643;-77
2021/05/05 00:29:45;;;;;;;;;;;;;;;21.88;29.78;97784.81;4942323;29;720;-78
2021/05/05 00:32:10;;;;;;;;;;;;;;;21.85;29.66;97781.63;4942292;29;984;-77
2021/05/05 00:34:36;;;;;;;;;;;;;;;21.89;29.76;97769.41;4945669;29;903;-78
2021/05/05 00:37:02;;;;;;;;;;;;;;;21.81;29.66;97774.47;4945766;29;1895;-78
2021/05/05 00:39:30;;;;;;;;;;;;;;;21.79;30.00;97769.28;4929319;29;1344;-79
2021/05/05 00:41:55;;;;;;;;;;;;;;;21.84;29.78;97771.53;4945814;29;608;-78
2021/05/05 00:44:23;;;;;;;;;;;;;;;22.00;29.67;97764.19;4945925;29;600;-78
2021/05/05 00:46:48;;;;;;;;;;;;;;;21.92;29.66;97755.13;4945417;29;873;-78
2021/05/05 00:49:14;;;;;;;;;;;;;;;21.88;29.68;97762.94;4945744;29;836;-75
2021/05/05 00:51:39;;;;;;;;;;;;;;;21.82;29.75;97754.22;4945593;29;955;-76
2021/05/05 00:54:05;;;;;;;;;;;;;;;21.79;29.69;97760.78;4945727;29;664;-75
2021/05/05 00:56:30;;;;;;;;;;;;;;;21.75;29.87;97754.44;4929393;29;1911;-75
2021/05/05 00:58:56;;;;;;;;;;;;;;;21.81;29.64;97746.97;4945591;29;682;-76
2021/05/05 01:01:21;;;;;;;;;;;;;;;21.76;30.10;97750.38;4945235;29;1046;-75
2021/05/05 01:03:47;;;;;;;;;;;;;;;21.87;29.68;97740.75;4945147;29;989;-76
2021/05/05 01:06:12;;;;;;;;;;;;;;;21.87;29.66;97747.19;4945467;29;1195;-76
2021/05/05 01:08:39;;;;;;;;;;;;;;;21.97;29.60;97750.94;4945585;29;655;-75
2021/05/05 01:11:05;;;;;;;;;;;;;;;21.85;29.57;97744.81;4945364;29;645;-78
2021/05/05 01:13:31;;;;;;;;;;;;;;;21.88;29.76;97740.28;4945274;29;735;-78
2021/05/05 01:16:00;;;;;;;;;;;;;;;21.80;29.54;97731.22;4945256;29;1987;-77
2021/05/05 01:18:30;;;;;;;;;;;;;;;21.87;29.66;97735.88;4945298;29;617;-78
2021/05/05 01:20:57;;;;;;;;;;;;;;;21.82;29.71;97728.72;4929102;29;1024;-78
2021/05/05 01:23:23;;;;;;;;;;;;;;;21.81;29.53;97715.81;4944817;29;933;-77
2021/05/05 01:25:50;;;;;;;;;;;;;;;21.81;29.51;97715.00;4944973;29;897;-78
2021/05/05 01:28:16;;;;;;;;;;;;;;;21.84;29.57;97723.41;4928528;29;624;-78
2021/05/05 01:30:42;;;;;;;;;;;;;;;21.82;29.51;97717.41;4928724;29;619;-78
2021/05/05 01:33:07;;;;;;;;;;;;;;;21.85;29.75;97713.66;4928449;29;639;-78
2021/05/05 01:35:33;;;;;;;;;;;;;;;21.72;29.63;97715.69;4928264;29;1971;-78
2021/05/05 01:37:58;;;;;;;;;;;;;;;21.80;29.52;97710.59;4928255;29;1113;-78
2021/05/05 01:40:25;;;;;;;;;;;;;;;21.85;29.71;97707.97;4944909;29;915;-78
2021/05/05 01:42:52;;;;;;;;;;;;;;;21.78;29.49;97708.22;4928360;29;1302;-78
2021/05/05 01:45:18;;;;;;;;;;;;;;;21.76;29.79;97705.06;4928240;29;1361;-78
2021/05/05 01:47:43;;;;;;;;;;;;;;;21.85;29.36;97707.19;4944414;29;967;-78
2021/05/05 01:50:09;;;;;;;;;;;;;;;21.76;29.59;97699.41;4944396;29;876;-78
2021/05/05 01:52:35;;;;;;;;;;;;;;;21.78;29.78;97702.56;4944619;29;892;-77
2021/05/05 01:55:00;;;;;;;;;;;;;;;21.88;29.48;97700.63;4944452;29;1984;-77
2021/05/05 01:57:36;;;;;;;;;;;;;;;21.83;29.73;97693.50;4944525;29;663;-78
2021/05/05 02:00:19;;;;;;;;;;;;;;;21.77;29.87;97700.97;4944460;29;703;-78
2021/05/05 02:02:50;;;;;;;;;;;;;;;21.66;29.87;97700.53;4913434;29;1205;-78
2021/05/05 02:05:24;;;;;;;;;;;;;;;21.81;29.53;97704.50;4944041;29;1027;-78
2021/05/05 02:08:19;;;;;;;;;;;;;;;21.78;29.89;97696.91;4935460;29;1166;-77
2021/05/05 02:10:46;;;;;;;;;;;;;;;21.75;29.88;97697.78;4944298;29;658;-78
2021/05/05 02:13:14;;;;;;;;;;;;;;;21.81;29.49;97690.34;4928092;29;1194;-78
2021/05/05 02:15:40;;;;;;;;;;;;;;;21.91;29.33;97690.41;4927819;29;1911;-78
2021/05/05 02:18:09;;;;;;;;;;;;;;;21.89;29.77;97687.25;4944074;29;720;-78
2021/05/05 02:20:35;;;;;;;;;;;;;;;21.80;29.66;97685.88;4928031;29;922;-78
2021/05/05 02:23:02;;;;;;;;;;;;;;;21.79;29.50;97692.03;4927350;29;1141;-78
2021/05/05 02:25:28;;;;;;;;;;;;;;;21.87;29.35;97687.72;4927137;29;930;-78
2021/05/05 02:27:56;;;;;;;;;;;;;;;21.91;29.40;97688.38;4927654;29;1269;-77
2021/05/05 02:30:31;;;;;;;;;;;;;;;21.80;29.67;97694.38;4927590;29;1357;-78
2021/05/05 02:33:04;;;;;;;;;;;;;;;21.75;29.63;97691.34;4943853;29;664;-78
2021/05/05 02:35:30;;;;;;;;;;;;;;;21.83;29.45;97679.34;4943402;29;1956;-78
2021/05/05 02:37:58;;;;;;;;;;;;;;;21.82;29.37;97685.47;4943379;29;845;-78
2021/05/05 02:40:24;;;;;;;;;;;;;;;21.88;29.61;97680.81;4943770;29;950;-78
2021/05/05 02:42:52;;;;;;;;;;;;;;;21.84;29.42;97680.91;4943612;29;671;-77
2021/05/05 02:45:17;;;;;;;;;;;;;;;21.82;29.54;97674.13;4943921;29;636;-78
2021/05/05 02:47:43;;;;;;;;;;;;;;;21.77;29.81;97669.81;4927012;29;1413;-78
2021/05/05 02:50:09;;;;;;;;;;;;;;;21.72;29.75;97664.72;4926582;29;935;-78
2021/05/05 02:52:34;;;;;;;;;;;;;;;21.70;30.05;97678.53;4943570;29;840;-78
2021/05/05 02:55:02;;;;;;;;;;;;;;;21.75;29.95;97669.47;4926462;29;1976;-78
2021/05/05 02:57:28;;;;;;;;;;;;;;;21.81;29.72;97664.84;4927074;29;1141;-78
2021/05/05 02:59:53;;;;;;;;;;;;;;;21.84;29.74;97660.28;4943368;29;652;-78
2021/05/05 03:02:18;;;;;;;;;;;;;;;21.77;29.69;97664.16;4943111;29;1090;-78
2021/05/05 03:04:44;;;;;;;;;;;;;;;21.81;29.75;97662.00;4942821;29;1101;-78
2021/05/05 03:07:09;;;;;;;;;;;;;;;21.98;29.41;97656.22;4895549;29;1124;-78
2021/05/05 03:09:35;;;;;;;;;;;;;;;21.93;29.40;97656.78;4943044;29;647;-79
2021/05/05 03:12:00;;;;;;;;;;;;;;;21.91;29.74;97659.25;4895591;29;1184;-78
2021/05/05 03:14:26;;;;;;;;;;;;;;;21.78;29.64;97657.25;4942854;29;912;-78
2021/05/05 03:16:53;;;;;;;;;;;;;;;21.85;29.62;97662.66;4942248;29;1931;-78
2021/05/05 03:19:19;;;;;;;;;;;;;;;21.84;29.84;97661.09;4926111;29;1221;-78
2021/05/05 03:21:44;;;;;;;;;;;;;;;21.76;29.90;97671.06;4926775;29;648;-78
2021/05/05 03:24:10;;;;;;;;;;;;;;;21.78;29.72;97656.47;4943337;29;608;-77
2021/05/05 03:26:35;;;;;;;;;;;;;;;21.85;29.49;97656.22;4943023;29;719;-78
2021/05/05 03:29:01;;;;;;;;;;;;;;;21.85;29.55;97650.53;4942550;29;908;-78
2021/05/05 03:31:26;;;;;;;;;;;;;;;21.77;29.72;97655.66;4942618;29;867;-78
2021/05/05 03:33:52;;;;;;;;;;;;;;;21.79;29.79;97658.81;4942953;29;980;-78
2021/05/05 03:36:20;;;;;;;;;;;;;;;21.76;30.06;97659.75;4942845;29;1899;-78
2021/05/05 03:38:46;;;;;;;;;;;;;;;21.85;29.65;97651.34;4925965;29;882;-78
2021/05/05 03:41:11;;;;;;;;;;;;;;;21.77;30.01;97660.53;4942826;29;742;-78
2021/05/05 03:43:36;;;;;;;;;;;;;;;21.94;29.59;97655.53;4925678;29;885;-78
2021/05/05 03:46:02;;;;;;;;;;;;;;;21.98;29.55;97667.53;4942684;29;868;-77
2021/05/05 03:48:27;;;;;;;;;;;;;;;21.90;29.72;97657.69;4925796;29;880;-78
2021/05/05 03:50:53;;;;;;;;;;;;;;;21.79;29.94;97664.50;4942624;29;648;-79
2021/05/05 03:53:19;;;;;;;;;;;;;;;21.76;29.72;97659.75;4942816;29;604;-78
2021/05/05 03:55:44;;;;;;;;;;;;;;;21.84;29.65;97666.75;4925909;29;1988;-78
2021/05/05 03:58:09;;;;;;;;;;;;;;;21.73;30.01;97669.16;4925764;29;865;-77
2021/05/05 04:00:35;;;;;;;;;;;;;;;21.79;29.69;97667.31;4942283;29;903;-76
2021/05/05 04:03:00;;;;;;;;;;;;;;;21.84;29.72;97661.09;4925731;29;956;-78
2021/05/05 04:05:26;;;;;;;;;;;;;;;21.85;29.85;97662.66;4941778;29;1067;-80
2021/05/05 04:07:51;;;;;;;;;;;;;;;21.84;29.67;97665.97;4926833;29;706;-76
2021/05/05 04:10:17;;;;;;;;;;;;;;;21.81;29.71;97667.69;4946165;29;983;-75
2021/05/05 04:12:42;;;;;;;;;;;;;;;21.87;29.99;97653.72;4946399;29;977;-76
2021/05/05 04:15:08;;;;;;;;;;;;;;;21.77;29.75;97638.69;4929603;29;1902;-77
2021/05/05 04:17:34;;;;;;;;;;;;;;;21.77;30.05;97638.69;4946260;29;671;-76
2021/05/05 04:20:00;;;;;;;;;;;;;;;21.78;29.88;97640.25;4945902;29;623;-76
2021/05/05 04:22:25;;;;;;;;;;;;;;;21.83;29.65;97651.00;4929874;29;1253;-76
2021/05/05 04:24:51;;;;;;;;;;;;;;;21.88;29.56;97654.53;4945759;29;1101;-76
2021/05/05 04:27:17;;;;;;;;;;;;;;;21.78;29.78;97645.91;4945619;29;813;-76
2021/05/05 04:29:42;;;;;;;;;;;;;;;21.83;29.57;97642.50;4945835;29;916;-78
2021/05/05 04:32:08;;;;;;;;;;;;;;;21.93;29.70;97646.25;4946175;29;708;-79
2021/05/05 04:34:33;;;;;;;;;;;;;;;21.88;29.83;97660.19;4928836;29;882;-78
2021/05/05 04:36:59;;;;;;;;;;;;;;;21.83;29.97;97658.72;4945659;29;1971;-77
2021/05/05 04:39:25;;;;;;;;;;;;;;;21.70;30.17;97658.72;4945247;29;1002;-77
2021/05/05 04:41:50;;;;;;;;;;;;;;;21.75;30.20;97658.13;4945513;29;931;-76
2021/05/05 04:44:16;;;;;;;;;;;;;;;21.92;29.62;97670.16;4945783;29;961;-76
2021/05/05 04:46:56;;;;;;;;;;;;;;;21.84;29.71;97678.06;4945827;29;712;-76
2021/05/05 04:49:21;;;;;;;;;;;;;;;21.74;30.00;97673.56;4945080;29;1193;-78
2021/05/05 04:51:47;;;;;;;;;;;;;;;21.83;29.94;97670.84;4945561;29;797;-78
2021/05/05 04:54:12;;;;;;;;;;;;;;;21.83;29.94;97662.34;4928563;29;983;-77
2021/05/05 04:56:41;;;;;;;;;;;;;;;21.93;29.73;97657.56;4945164;29;1930;-77
2021/05/05 04:59:06;;;;;;;;;;;;;;;21.95;29.62;97640.09;4945418;29;994;-77
2021/05/05 05:01:32;;;;;;;;;;;;;;;21.85;30.09;97657.00;4945629;29;628;-78
2021/05/05 05:03:57;;;;;;;;;;;;;;;21.91;29.73;97653.59;4928792;29;1109;-78
2021/05/05 05:06:23;;;;;;;;;;;;;;;21.91;29.78;97659.25;4928494;29;895;-78
2021/05/05 05:08:48;;;;;;;;;;;;;;;21.84;30.11;97663.91;4945198;29;1063;-78
2021/05/05 05:11:13;;;;;;;;;;;;;;;21.96;29.91;97667.19;4928284;29;1120;-77
2021/05/05 05:13:39;;;;;;;;;;;;;;;21.78;30.30;97671.41;4944252;29;1000;-76
2021/05/05 05:16:05;;;;;;;;;;;;;;;21.85;29.86;97685.31;4945289;29;1974;-78
2021/05/05 05:18:30;;;;;;;;;;;;;;;21.82;29.93;97672.09;4943759;29;870;-78
2021/05/05 05:20:56;;;;;;;;;;;;;;;21.85;30.10;97685.31;4945345;29;600;-78
2021/05/05 05:23:21;;;;;;;;;;;;;;;21.83;30.07;97678.53;4944570;29;1100;-79
2021/05/05 05:25:47;;;;;;;;;;;;;;;21.88;30.15;97691.34;4944140;29;916;-77
2021/05/05 05:28:12;;;;;;;;;;;;;;;21.97;29.84;97695.06;4945427;29;978;-79
2021/05/05 05:30:38;;;;;;;;;;;;;;;21.94;30.02;97693.16;4945061;29;652;-78
2021/05/05 05:33:03;;;;;;;;;;;;;;;21.96;29.85;97693.47;4944861;29;598;-78
2021/05/05 05:35:29;;;;;;;;;;;;;;;21.87;29.91;97687.72;4944978;29;1970;-78
2021/05/05 05:37:54;;;;;;;;;;;;;;;22.00;29.87;97690.53;4944957;29;592;-78
2021/05/05 05:40:20;;;;;;;;;;;;;;;21.93;29.87;97690.78;4945069;29;741;-77
2021/05/05 05:42:45;;;;;;;;;;;;;;;21.94;29.74;97692.34;4944544;29;867;-77
2021/05/05 05:45:12;;;;;;;;;;;;;;;21.87;29.88;97692.59;4943519;29;973;-77
2021/05/05 05:47:38;;;;;;;;;;;;;;;21.94;29.94;97698.81;4944747;29;1021;-78
2021/05/05 05:50:03;;;;;;;;;;;;;;;22.02;29.60;97705.00;4944923;29;624;-77
2021/05/05 05:52:29;;;;;;;;;;;;;;;22.00;29.57;97696.19;4944257;29;596;-77
2021/05/05 05:54:54;;;;;;;;;;;;;;;21.99;29.70;97691.78;4944753;29;627;-76
2021/05/05 05:57:20;;;;;;;;;;;;;;;21.94;29.68;97684.66;4943536;29;1902;-77
2021/05/05 05:59:45;;;;;;;;;;;;;;;22.02;29.47;97688.03;4944322;29;788;-78
2021/05/05 06:02:11;;;;;;;;;;;;;;;21.96;29.67;97689.84;4944542;29;1015;-77
2021/05/05 06:04:36;;;;;;;;;;;;;;;21.99;29.74;97691.78;4944352;29;1068;-77
2021/05/05 06:07:02;;;;;;;;;;;;;;;22.07;29.83;97695.94;4943525;29;698;-78
2021/05/05 06:09:27;;;;;;;;;;;;;;;22.24;29.56;97699.47;4944398;29;601;-79
2021/05/05 06:11:53;;;;;;;;;;;;;;;22.09;29.98;97693.47;4944392;29;703;-78
2021/05/05 06:14:18;;;;;;;;;;;;;;;22.00;30.05;97690.53;4943915;29;969;-79
2021/05/05 06:16:46;;;;;;;;;;;;;;;22.10;29.77;97686.53;4944168;29;1918;-78
2021/05/05 06:19:12;;;;;;;;;;;;;;;22.14;29.71;97684.41;4943555;29;852;-79
2021/05/05 06:21:37;;;;;;;;;;;;;;;22.07;29.81;97690.28;4943513;29;1298;-79
2021/05/05 06:24:04;;;;;;;;;;;;;;;22.20;29.64;97693.13;4944045;29;704;-78
2021/05/05 06:26:29;;;;;;;;;;;;;;;22.03;29.79;97692.47;4943461;29;1048;-79
2021/05/05 06:28:54;;;;;;;;;;;;;;;21.98;30.14;97684.53;4943766;29;867;-79
2021/05/05 06:31:20;;;;;;;;;;;;;;;22.00;29.91;97699.03;4943013;29;967;-78
2021/05/05 06:33:46;;;;;;;;;;;;;;;22.09;29.79;97691.41;4944135;29;971;-79
2021/05/05 06:36:11;;;;;;;;;;;;;;;22.08;29.75;97686.22;4942823;29;1966;-79
2021/05/05 06:38:37;;;;;;;;;;;;;;;22.18;29.77;97673.75;4943445;29;1376;-78
2021/05/05 06:41:02;;;;;;;;;;;;;;;22.06;29.84;97677.38;4926877;29;980;-78
2021/05/05 06:43:27;;;;;;;;;;;;;;;21.95;30.33;97688.25;4943568;29;930;-78
2021/05/05 06:45:53;;;;;;;;;;;;;;;22.10;29.86;97683.72;4927162;29;849;-79
2021/05/05 06:48:18;;;;;;;;;;;;;;;21.97;30.11;97677.28;4943679;29;632;-79
2021/05/05 06:50:44;;;;;;;;;;;;;;;22.01;29.98;97675.09;4943656;29;704;-79
2021/05/05 06:53:11;;;;;;;;;;;;;;;22.08;29.96;97677.72;4926391;29;716;-80
2021/05/05 06:55:36;;;;;;;;;;;;;;;22.10;29.70;97678.88;4942970;29;1973;-79
2021/05/05 06:58:02;;;;;;;;;;;;;;;22.20;29.72;97681.81;4942297;29;910;-79
2021/05/05 07:00:27;;;;;;;;;;;;;;;22.16;29.73;97676.25;4926649;29;904;-79
2021/05/05 07:02:53;;;;;;;;;;;;;;;22.30;29.92;97678.59;4943486;29;645;-79
2021/05/05 07:05:18;;;;;;;;;;;;;;;21.93;30.74;97670.94;4943194;29;1136;-77
2021/05/05 07:07:44;;;;;;;;;;;;;;;21.93;30.63;97676.59;4943133;29;600;-78
2021/05/05 07:10:10;;;;;;;;;;;;;;;21.68;31.06;97675.38;4942340;29;1015;-76
2021/05/05 07:12:35;;;;;;;;;;;;;;;21.93;31.44;97674.56;4925846;29;929;-78
2021/05/05 07:15:01;;;;;;;;;;;;;;;22.74;30.62;97673.00;4910501;29;846;-75
2021/05/05 07:17:35;;;;;;;;;;;;;;;23.19;31.09;97677.44;4942917;29;1918;-79
2021/05/05 07:20:01;;;;;;;;;;;;;;;23.22;31.37;97682.19;4943086;29;660;-79
2021/05/05 07:22:26;;;;;;;;;;;;;;;22.04;32.32;97680.66;4943149;29;638;-78
2021/05/05 07:24:52;;;;;;;;;;;;;;;21.65;32.86;97678.31;4943022;29;663;-78
2021/05/05 07:27:17;;;;;;;;;;;;;;;22.10;32.97;97689.38;4942740;29;899;-78
2021/05/05 07:29:43;;;;;;;;;;;;;;;22.56;32.23;97687.03;4925948;29;976;-77
2021/05/05 07:32:08;;;;;;;;;;;;;;;23.19;31.20;97688.00;4942899;29;1004;-78
2021/05/05 07:34:34;;;;;;;;;;;;;;;23.41;31.04;97683.06;4926110;29;875;-78
2021/05/05 07:37:09;;;;;;;;;;;;;;;22.64;31.75;97688.38;4942917;29;1906;-78
2021/05/05 07:48:01;;;;;;;;;;;;;;;23.17;31.68;97685.63;4928191;29;676;-79
2021/05/05 07:50:27;;;;;;;;;;;;;;;23.44;31.04;97682.16;4928501;29;696;-78
2021/05/05 07:52:52;;;;;;;;;;;;;;;22.58;31.53;97688.13;4925725;29;923;-77
2021/05/05 07:55:18;;;;;;;;;;;;;;;21.99;32.91;97686.13;4942962;29;1964;-77
2021/05/05 07:57:43;;;;;;;;;;;;;;;22.01;32.28;97678.72;4942286;29;951;-79
2021/05/05 08:00:09;;;;;;;;;;;;;;;22.39;32.65;97679.94;4942219;29;910;-78
2021/05/05 08:02:38;;;;;;;;;;;;;;;23.01;31.67;97685.84;4941999;29;1266;-78
2021/05/05 08:05:04;;;;;;;;;;;;;;;23.45;30.81;97678.03;4926150;29;1141;-78
2021/05/05 08:07:29;;;;;;;;;;;;;;;23.33;30.42;97682.56;4942522;29;663;-79
2021/05/05 08:09:55;;;;;;;;;;;;;;;21.96;32.60;97667.19;4926054;29;656;-76
2021/05/05 08:12:20;;;;;;;;;;;;;;;21.98;32.27;97659.03;4942219;29;934;-79
2021/05/05 08:14:46;;;;;;;;;;;;;;;21.22;34.03;97665.47;4942327;29;947;-77
2021/05/05 08:17:12;;;;;;;;;;;;;;;22.45;32.77;97658.25;4942522;29;1990;-78
2021/05/05 08:19:37;;;;;;;;;;;;;;;22.79;32.10;97655.38;4926185;29;1122;-79
2021/05/05 08:22:03;;;;;;;;;;;;;;;23.32;31.14;97657.50;4942499;29;700;-78
2021/05/05 08:24:28;;;;;;;;;;;;;;;22.31;31.82;97657.50;4942416;29;639;-79
2021/05/05 08:26:57;;;;;;;;;;;;;;;21.65;33.34;97658.50;4941668;29;1163;-74
2021/05/05 08:29:24;;;;;;;;;;;;;;;22.19;32.77;97652.66;4942660;29;696;-73
2021/05/05 08:31:50;;;;;;;;;;;;;;;22.65;32.20;97657.97;4942507;29;680;-74
2021/05/05 08:34:15;;;;;;;;;;;;;;;23.34;31.41;97655.75;4941961;29;936;-74
2021/05/05 08:36:41;;;;;;;;;;;;;;;22.84;32.21;97657.63;4941742;29;1968;-79
2021/05/05 08:39:07;;;;;;;;;;;;;;;22.58;32.66;97661.81;4925873;29;980;-77
2021/05/05 08:41:33;;;;;;;;;;;;;;;22.79;32.31;97654.59;4909445;29;1585;-79
2021/05/05 08:43:58;;;;;;;;;;;;;;;22.62;32.86;97651.16;4925759;29;775;-79
2021/05/05 08:46:24;;;;;;;;;;;;;;;22.68;32.86;97654.97;4925847;29;1473;-76
2021/05/05 08:48:50;;;;;;;;;;;;;;;22.59;33.31;97650.03;4942634;29;635;-79
2021/05/05 08:51:15;;;;;;;;;;;;;;;22.87;33.51;97645.34;4942062;29;611;-78
2021/05/05 08:53:41;;;;;;;;;;;;;;;23.15;32.55;97651.22;4925289;29;959;-76
2021/05/05 08:56:07;;;;;;;;;;;;;;;23.36;32.12;97639.06;4944603;29;1891;-75
2021/05/05 08:58:33;;;;;;;;;;;;;;;23.37;32.33;97643.47;4936244;29;1134;-77
2021/05/05 09:01:00;;;;;;;;;;;;;;;23.31;31.96;97645.34;4943955;29;1165;-77
2021/05/05 09:03:32;;;;;;;;;;;;;;;23.23;32.25;97646.88;4927307;29;1182;-78
2021/05/05 09:06:03;;;;;;;;;;;;;;;23.07;31.95;97650.72;4924172;29;1182;-77
2021/05/05 09:08:31;;;;;;;;;;;;;;;22.81;32.37;97644.38;4941428;29;1154;-78
2021/05/05 09:10:56;;;;;;;;;;;;;;;22.67;32.55;97647.72;4912612;29;1185;-78
2021/05/05 09:13:42;;;;;;;;;;;;;;;22.68;32.26;97637.97;4926497;29;543;-77
2021/05/05 09:16:08;;;;;;;;;;;;;;;22.75;31.93;97642.59;4925683;29;1976;-78
2021/05/05 09:18:50;;;;;;;;;;;;;;;22.79;31.37;97641.19;4913186;29;1204;-78
2021/05/05 09:21:22;;;;;;;;;;;;;;;22.68;31.74;97648.50;4916154;29;1226;-77
2021/05/05 09:23:48;;;;;;;;;;;;;;;22.63;31.34;97636.50;4926308;29;1185;-76
2021/05/05 09:26:32;;;;;;;;;;;;;;;22.74;30.97;97635.31;4927502;29;1170;-77
2021/05/05 09:28:57;;;;;;;;;;;;;;;22.75;31.00;97637.72;4911484;29;1174;-75
2021/05/05 09:31:24;;;;;;;;;;;;;;;22.77;30.94;97634.41;4934726;29;1407;-78
2021/05/05 09:33:55;;;;;;;;;;;;;;;22.73;30.96;97628.84;4917739;29;1197;-78
2021/05/05 09:36:22;;;;;;;;;;;;;;;22.75;30.55;97622.75;4940141;29;1915;-78
2021/05/05 09:38:50;;;;;;;;;;;;;;;22.77;30.64;97618.19;4918069;29;1202;-76
2021/05/05 09:41:17;;;;;;;;;;;;;;;22.90;30.80;97617.34;4933275;29;1201;-75
2021/05/05 09:43:42;;;;;;;;;;;;;;;22.85;30.44;97619.50;4944271;29;1181;-78
2021/05/05 09:46:26;;;;;;;;;;;;;;;22.79;30.80;97609.19;4940494;29;1178;-76
2021/05/05 09:48:52;;;;;;;;;;;;;;;22.93;30.70;97600.19;4941522;29;1301;-72
2021/05/05 09:51:17;;;;;;;;;;;;;;;22.98;31.09;97598.78;4944536;29;1038;-77
2021/05/05 09:53:46;;;;;;;;;;;;;;;22.85;30.71;97596.81;4912100;29;902;-79
2021/05/05 09:56:12;;;;;;;;;;;;;;;22.77;31.12;97594.69;4928564;29;1977;-78
2021/05/05 09:58:41;;;;;;;;;;;;;;;22.74;30.78;97607.78;4944782;29;663;-77
2021/05/05 10:01:08;;;;;;;;;;;;;;;22.64;30.68;97600.47;4927873;29;1008;-78
2021/05/05 10:03:36;;;;;;;;;;;;;;;22.65;30.64;97598.41;4944565;29;612;-81
2021/05/05 10:06:21;;;;;;;;;;;;;;;22.48;30.83;97592.13;4942446;29;966;-79
2021/05/05 10:08:51;;;;;;;;;;;;;;;22.59;30.61;97584.81;4943422;29;855;-78
2021/05/05 10:11:20;;;;;;;;;;;;;;;22.45;30.76;97590.22;4927691;29;927;-79
2021/05/05 10:13:56;;;;;;;;;;;;;;;22.54;30.55;97587.47;4911801;29;791;-79
2021/05/05 10:16:22;;;;;;;;;;;;;;;22.43;30.50;97581.38;4927807;29;1903;-79
2021/05/05 10:18:55;;;;;;;;;;;;;;;22.47;30.23;97582.81;4927683;29;649;-79
2021/05/05 10:21:22;;;;;;;;;;;;;;;22.42;30.56;97579.78;4925009;29;815;-78
2021/05/05 10:23:48;;;;;;;;;;;;;;;22.43;30.09;97589.88;4927021;29;978;-79
2021/05/05 10:26:14;;;;;;;;;;;;;;;22.30;30.12;97592.78;4911617;29;1032;-78
2021/05/05 10:28:39;;;;;;;;;;;;;;;22.32;30.35;97593.88;4927332;29;856;-77
2021/05/05 10:31:14;;;;;;;;;;;;;;;22.32;29.89;97598.75;4943756;29;620;-79
2021/05/05 10:33:41;;;;;;;;;;;;;;;22.22;30.10;97606.41;4928263;29;663;-79
2021/05/05 10:36:29;;;;;;;;;;;;;;;22.40;29.71;97616.31;4927792;29;1899;-79
2021/05/05 10:38:55;;;;;;;;;;;;;;;22.25;29.70;97608.31;4926697;29;1126;-79
2021/05/05 10:41:21;;;;;;;;;;;;;;;22.23;29.90;97601.53;4926825;29;901;-79
2021/05/05 10:43:50;;;;;;;;;;;;;;;22.20;29.73;97594.75;4943484;29;649;-78
2021/05/05 10:46:23;;;;;;;;;;;;;;;22.15;30.00;97606.66;4927199;29;859;-78
2021/05/05 10:49:00;;;;;;;;;;;;;;;22.10;29.83;97598.72;4943622;29;659;-79
2021/05/05 10:51:25;;;;;;;;;;;;;;;22.12;29.92;97596.22;4927058;29;901;-79
2021/05/05 10:53:51;;;;;;;;;;;;;;;22.20;29.52;97602.44;4910784;29;801;-79
2021/05/05 10:56:24;;;;;;;;;;;;;;;22.24;29.50;97612.41;4927234;29;1969;-78
2021/05/05 10:58:59;;;;;;;;;;;;;;;22.24;29.43;97597.47;4911406;29;879;-79
2021/05/05 11:01:37;;;;;;;;;;;;;;;22.17;29.60;97592.81;4910654;29;1170;-78
2021/05/05 11:04:03;;;;;;;;;;;;;;;22.12;29.93;97595.44;4926197;29;844;-78
2021/05/05 11:06:29;;;;;;;;;;;;;;;22.22;29.73;97594.28;4925984;29;1169;-78
2021/05/05 11:08:55;;;;;;;;;;;;;;;22.11;29.73;97597.47;4943103;29;672;-78
2021/05/05 11:11:33;;;;;;;;;;;;;;;22.14;29.76;97602.25;4943336;29;647;-79
2021/05/05 11:13:59;;;;;;;;;;;;;;;22.10;29.44;97595.88;4926213;29;807;-79
2021/05/05 11:16:24;;;;;;;;;;;;;;;22.19;29.38;97601.66;4926357;29;1903;-79
2021/05/05 11:18:52;;;;;;;;;;;;;;;22.22;29.46;97589.38;4926932;29;723;-79
2021/05/05 11:21:18;;;;;;;;;;;;;;;22.14;29.61;97588.06;4939900;29;1182;-79
2021/05/05 11:23:45;;;;;;;;;;;;;;;22.04;29.58;97580.72;4939753;29;1237;-78
2021/05/05 11:26:13;;;;;;;;;;;;;;;22.10;29.83;97581.72;4926494;29;1259;-78
2021/05/05 11:28:54;;;;;;;;;;;;;;;22.08;29.48;97578.56;4942994;29;719;-79
2021/05/05 11:31:19;;;;;;;;;;;;;;;22.09;29.68;97563.13;4942456;29;1090;-79
2021/05/05 11:33:57;;;;;;;;;;;;;;;22.15;29.60;97555.66;4909056;29;1304;-79
2021/05/05 11:36:23;;;;;;;;;;;;;;;22.16;29.41;97562.91;4935155;29;1898;-78
2021/05/05 11:38:48;;;;;;;;;;;;;;;22.05;29.57;97568.91;4942521;29;839;-79
2021/05/05 11:41:15;;;;;;;;;;;;;;;22.02;29.39;97566.19;4942750;29;707;-78
2021/05/05 11:43:42;;;;;;;;;;;;;;;22.01;29.53;97558.97;4926128;29;1274;-78
2021/05/05 11:46:08;;;;;;;;;;;;;;;22.13;29.22;97554.53;4925788;29;801;-79
2021/05/05 11:48:38;;;;;;;;;;;;;;;22.06;29.35;97552.72;4925423;29;944;-77
2021/05/05 11:51:14;;;;;;;;;;;;;;;22.01;29.58;97556.13;4910169;29;812;-79
2021/05/05 11:53:40;;;;;;;;;;;;;;;22.08;29.40;97550.22;4926024;29;848;-78
2021/05/05 11:56:18;;;;;;;;;;;;;;;22.02;29.45;97541.53;4925915;29;1895;-78
2021/05/05 11:58:56;;;;;;;;;;;;;;;22.16;29.21;97543.06;4943007;29;676;-78
2021/05/05 12:01:32;;;;;;;;;;;;;;;22.10;29.42;97536.38;4925770;29;978;-79
2021/05/05 12:04:17;;;;;;;;;;;;;;;22.05;29.64;97546.25;4925499;29;910;-79
2021/05/05 12:06:46;;;;;;;;;;;;;;;21.97;29.71;97532.81;4925913;29;660;-77
2021/05/05 12:09:28;;;;;;;;;;;;;;;21.92;29.71;97536.22;4925765;29;965;-78
2021/05/05 12:12:12;;;;;;;;;;;;;;;22.00;29.57;97532.66;4942674;29;691;-78
2021/05/05 12:14:37;;;;;;;;;;;;;;;21.96;29.45;97531.22;4942301;29;675;-79
2021/05/05 12:17:43;;;;;;;;;;;;;;;22.01;29.88;97528.59;4925644;29;1894;-79
2021/05/05 12:20:02;;;;;;;;;;;;;;;22.04;29.30;97526.88;4928024;29;954;-78
2021/05/05 12:22:28;;;;;;;;;;;;;;;22.02;29.73;97529.38;4942394;29;656;-79
2021/05/05 12:25:09;;;;;;;;;;;;;;;22.01;29.37;97527.78;4925525;29;819;-79
2021/05/05 12:27:34;;;;;;;;;;;;;;;21.98;29.41;97523.84;4942188;29;644;-78
2021/05/05 12:30:00;;;;;;;;;;;;;;;21.85;29.59;97523.88;4928297;29;813;-78
2021/05/05 12:32:42;;;;;;;;;;;;;;;22.01;29.32;97511.59;4929025;29;927;-79
2021/05/05 12:35:08;;;;;;;;;;;;;;;21.99;29.59;97513.31;4945756;29;985;-77
2021/05/05 12:37:33;;;;;;;;;;;;;;;21.96;29.33;97508.56;4945853;29;1899;-78
2021/05/05 12:39:59;;;;;;;;;;;;;;;21.98;29.32;97509.69;4946010;29;683;-78
2021/05/05 12:42:31;;;;;;;;;;;;;;;22.00;29.65;97503.56;4945963;29;704;-79
2021/05/05 12:45:03;;;;;;;;;;;;;;;21.93;29.56;97510.28;4929622;29;627;-78
2021/05/05 12:47:29;;;;;;;;;;;;;;;22.01;29.43;97505.91;4928822;29;963;-78
2021/05/05 12:49:59;;;;;;;;;;;;;;;21.92;29.36;97490.91;4945518;29;937;-78
2021/05/05 12:52:28;;;;;;;;;;;;;;;21.91;29.43;97497.81;4945632;29;892;-79
2021/05/05 12:54:54;;;;;;;;;;;;;;;22.01;29.24;97488.91;4945361;29;583;-78
2021/05/05 12:57:20;;;;;;;;;;;;;;;21.96;29.06;97480.22;4928766;29;1976;-78
2021/05/05 12:59:48;;;;;;;;;;;;;;;21.98;29.55;97489.06;4928926;29;752;-77
2021/05/05 13:02:20;;;;;;;;;;;;;;;21.96;29.24;97475.34;4945080;29;962;-79
2021/05/05 13:04:46;;;;;;;;;;;;;;;22.06;29.27;97468.50;4929237;29;981;-79
2021/05/05 13:07:31;;;;;;;;;;;;;;;21.91;29.53;97460.97;4928878;29;1120;-77
2021/05/05 13:10:09;;;;;;;;;;;;;;;21.97;29.25;97464.84;4929184;29;695;-78
2021/05/05 13:12:46;;;;;;;;;;;;;;;21.90;29.57;97459.41;4928378;29;899;-79